sensor_id;sensor_type;location;lat;lon;timestamp;P1;durP1;ratioP1;P2;durP2;ratioP2
48853;SDS011;34673;52.808;17.856;2023-08-20T00:02:09;18.50;;;16.60;;
48853;SDS011;34673;52.808;17.856;2023-08-20T00:04:37;18.58;;;16.60;;
48853;SDS011;34673;52.808;17.856;2023-08-20T00:07:04;19.00;;;17.02;;
48853;SDS011;34673;52.808;17.856;2023-08-20T00:09:32;19.60;;;17.60;;
48853;SDS011;34673;52.808;17.856;2023-08-20T00:11:59;19.48;;;17.30;;
48853;SDS011;34673;52.808;17.856;2023-08-20T00:17:35;19.17;;;17.17;;
48853;SDS011;34673;52.808;17.856;2023-08-20T00:20:04;18.48;;;16.58;;
48853;SDS011;34673;52.808;17.856;2023-08-20T00:22:40;19.17;;;16.05;;
48853;SDS011;34673;52.808;17.856;2023-08-20T00:25:09;18.77;;;16.83;;
48853;SDS011;34673;52.808;17.856;2023-08-20T00:27:36;19.08;;;17.13;;
48853;SDS011;34673;52.808;17.856;2023-08-20T00:30:04;16.98;;;15.30;;
48853;SDS011;34673;52.808;17.856;2023-08-20T00:32:31;18.85;;;17.05;;
48853;SDS011;34673;52.808;17.856;2023-08-20T00:34:59;18.27;;;16.48;;
48853;SDS011;34673;52.808;17.856;2023-08-20T00:37:26;18.02;;;15.38;;
48853;SDS011;34673;52.808;17.856;2023-08-20T00:39:53;17.98;;;16.08;;
48853;SDS011;34673;52.808;17.856;2023-08-20T00:42:21;18.90;;;16.90;;
48853;SDS011;34673;52.808;17.856;2023-08-20T00:44:48;19.17;;;17.20;;
48853;SDS011;34673;52.808;17.856;2023-08-20T00:47:16;18.98;;;16.98;;
48853;SDS011;34673;52.808;17.856;2023-08-20T00:49:44;19.57;;;17.57;;
48853;SDS011;34673;52.808;17.856;2023-08-20T00:52:13;20.23;;;18.13;;
48853;SDS011;34673;52.808;17.856;2023-08-20T00:54:44;20.40;;;18.20;;
48853;SDS011;34673;52.808;17.856;2023-08-20T00:57:15;21.05;;;18.38;;
48853;SDS011;34673;52.808;17.856;2023-08-20T00:59:45;25.17;;;19.52;;
48853;SDS011;34673;52.808;17.856;2023-08-20T01:02:16;26.77;;;21.90;;
48853;SDS011;34673;52.808;17.856;2023-08-20T01:04:44;24.75;;;21.88;;
48853;SDS011;34673;52.808;17.856;2023-08-20T01:13:39;27.08;;;22.38;;
48853;SDS011;34673;52.808;17.856;2023-08-20T01:16:06;26.42;;;20.88;;
48853;SDS011;34673;52.808;17.856;2023-08-20T01:18:34;28.02;;;21.90;;
48853;SDS011;34673;52.808;17.856;2023-08-20T01:21:02;27.15;;;21.02;;
48853;SDS011;34673;52.808;17.856;2023-08-20T01:29:07;26.33;;;20.65;;
48853;SDS011;34673;52.808;17.856;2023-08-20T01:31:36;23.42;;;19.80;;
48853;SDS011;34673;52.808;17.856;2023-08-20T01:34:04;25.77;;;21.45;;
48853;SDS011;34673;52.808;17.856;2023-08-20T01:36:32;26.05;;;23.13;;
48853;SDS011;34673;52.808;17.856;2023-08-20T01:38:59;23.45;;;19.77;;
48853;SDS011;34673;52.808;17.856;2023-08-20T01:41:26;23.58;;;21.05;;
48853;SDS011;34673;52.808;17.856;2023-08-20T01:43:54;21.48;;;19.17;;
48853;SDS011;34673;52.808;17.856;2023-08-20T01:46:21;24.27;;;20.77;;
48853;SDS011;34673;52.808;17.856;2023-08-20T01:48:50;23.65;;;21.25;;
48853;SDS011;34673;52.808;17.856;2023-08-20T01:51:17;24.55;;;21.17;;
48853;SDS011;34673;52.808;17.856;2023-08-20T01:53:44;24.45;;;20.50;;
48853;SDS011;34673;52.808;17.856;2023-08-20T01:56:12;24.70;;;22.10;;
48853;SDS011;34673;52.808;17.856;2023-08-20T01:58:40;29.95;;;26.02;;
48853;SDS011;34673;52.808;17.856;2023-08-20T02:01:07;24.98;;;22.10;;
48853;SDS011;34673;52.808;17.856;2023-08-20T02:03:35;24.08;;;21.33;;
48853;SDS011;34673;52.808;17.856;2023-08-20T02:06:04;29.58;;;23.45;;
48853;SDS011;34673;52.808;17.856;2023-08-20T02:08:32;26.88;;;23.52;;
48853;SDS011;34673;52.808;17.856;2023-08-20T02:11:00;28.73;;;25.65;;
48853;SDS011;34673;52.808;17.856;2023-08-20T02:13:31;27.75;;;24.75;;
48853;SDS011;34673;52.808;17.856;2023-08-20T02:16:02;28.90;;;25.05;;
48853;SDS011;34673;52.808;17.856;2023-08-20T02:18:31;29.15;;;25.45;;
48853;SDS011;34673;52.808;17.856;2023-08-20T02:20:59;24.60;;;22.00;;
48853;SDS011;34673;52.808;17.856;2023-08-20T02:23:27;25.92;;;22.52;;
48853;SDS011;34673;52.808;17.856;2023-08-20T02:25:54;29.08;;;25.88;;
48853;SDS011;34673;52.808;17.856;2023-08-20T02:28:21;29.55;;;24.38;;
48853;SDS011;34673;52.808;17.856;2023-08-20T02:30:50;28.08;;;24.17;;
48853;SDS011;34673;52.808;17.856;2023-08-20T02:33:17;25.73;;;22.92;;
48853;SDS011;34673;52.808;17.856;2023-08-20T02:35:44;25.33;;;22.33;;
48853;SDS011;34673;52.808;17.856;2023-08-20T02:38:11;30.75;;;25.67;;
48853;SDS011;34673;52.808;17.856;2023-08-20T02:40:42;28.08;;;24.23;;
48853;SDS011;34673;52.808;17.856;2023-08-20T02:43:11;26.83;;;23.83;;
48853;SDS011;34673;52.808;17.856;2023-08-20T02:45:41;25.38;;;22.50;;
48853;SDS011;34673;52.808;17.856;2023-08-20T02:48:09;25.35;;;21.52;;
48853;SDS011;34673;52.808;17.856;2023-08-20T02:50:37;24.52;;;21.77;;
48853;SDS011;34673;52.808;17.856;2023-08-20T02:53:04;24.60;;;21.48;;
48853;SDS011;34673;52.808;17.856;2023-08-20T02:55:32;25.20;;;22.60;;
48853;SDS011;34673;52.808;17.856;2023-08-20T02:58:00;24.25;;;21.63;;
48853;SDS011;34673;52.808;17.856;2023-08-20T03:00:27;25.83;;;23.08;;
48853;SDS011;34673;52.808;17.856;2023-08-20T03:02:56;23.45;;;21.05;;
48853;SDS011;34673;52.808;17.856;2023-08-20T03:05:23;23.13;;;20.63;;
48853;SDS011;34673;52.808;17.856;2023-08-20T03:07:50;26.88;;;23.65;;
48853;SDS011;34673;52.808;17.856;2023-08-20T03:10:17;31.25;;;25.45;;
48853;SDS011;34673;52.808;17.856;2023-08-20T03:12:45;28.38;;;24.17;;
48853;SDS011;34673;52.808;17.856;2023-08-20T03:15:12;25.83;;;23.13;;
48853;SDS011;34673;52.808;17.856;2023-08-20T03:17:39;29.45;;;25.33;;
48853;SDS011;34673;52.808;17.856;2023-08-20T03:20:06;27.23;;;23.55;;
48853;SDS011;34673;52.808;17.856;2023-08-20T03:22:36;27.83;;;24.85;;
48853;SDS011;34673;52.808;17.856;2023-08-20T03:25:04;29.38;;;24.90;;
48853;SDS011;34673;52.808;17.856;2023-08-20T03:27:32;29.15;;;26.05;;
48853;SDS011;34673;52.808;17.856;2023-08-20T03:30:01;28.63;;;24.90;;
48853;SDS011;34673;52.808;17.856;2023-08-20T03:32:30;27.73;;;24.42;;
48853;SDS011;34673;52.808;17.856;2023-08-20T03:34:58;29.58;;;25.17;;
48853;SDS011;34673;52.808;17.856;2023-08-20T03:37:26;27.83;;;24.00;;
48853;SDS011;34673;52.808;17.856;2023-08-20T03:39:53;27.48;;;24.15;;
48853;SDS011;34673;52.808;17.856;2023-08-20T03:42:20;27.83;;;24.38;;
48853;SDS011;34673;52.808;17.856;2023-08-20T03:44:47;27.17;;;23.30;;
48853;SDS011;34673;52.808;17.856;2023-08-20T03:47:15;26.55;;;23.75;;
48853;SDS011;34673;52.808;17.856;2023-08-20T03:49:47;28.88;;;25.73;;
48853;SDS011;34673;52.808;17.856;2023-08-20T03:52:15;28.45;;;25.35;;
48853;SDS011;34673;52.808;17.856;2023-08-20T03:54:42;27.00;;;24.00;;
48853;SDS011;34673;52.808;17.856;2023-08-20T03:57:09;27.02;;;24.13;;
48853;SDS011;34673;52.808;17.856;2023-08-20T03:59:36;27.55;;;24.27;;
48853;SDS011;34673;52.808;17.856;2023-08-20T04:02:03;26.92;;;24.02;;
48853;SDS011;34673;52.808;17.856;2023-08-20T04:04:31;28.02;;;24.80;;
48853;SDS011;34673;52.808;17.856;2023-08-20T04:06:58;30.63;;;24.65;;
48853;SDS011;34673;52.808;17.856;2023-08-20T04:09:25;26.95;;;24.02;;
48853;SDS011;34673;52.808;17.856;2023-08-20T04:11:52;26.27;;;22.80;;
48853;SDS011;34673;52.808;17.856;2023-08-20T04:14:20;26.25;;;23.42;;
48853;SDS011;34673;52.808;17.856;2023-08-20T04:16:47;25.60;;;22.90;;
48853;SDS011;34673;52.808;17.856;2023-08-20T04:19:14;26.02;;;22.50;;
48853;SDS011;34673;52.808;17.856;2023-08-20T04:21:41;26.13;;;22.67;;
48853;SDS011;34673;52.808;17.856;2023-08-20T04:24:08;25.75;;;22.17;;
48853;SDS011;34673;52.808;17.856;2023-08-20T04:26:36;25.27;;;22.23;;
48853;SDS011;34673;52.808;17.856;2023-08-20T04:29:03;26.33;;;23.38;;
48853;SDS011;34673;52.808;17.856;2023-08-20T04:31:30;26.63;;;23.52;;
48853;SDS011;34673;52.808;17.856;2023-08-20T04:34:05;28.73;;;22.85;;
48853;SDS011;34673;52.808;17.856;2023-08-20T04:36:41;25.55;;;22.65;;
48853;SDS011;34673;52.808;17.856;2023-08-20T04:39:08;25.02;;;21.23;;
48853;SDS011;34673;52.808;17.856;2023-08-20T04:41:38;21.75;;;19.40;;
48853;SDS011;34673;52.808;17.856;2023-08-20T04:44:10;22.02;;;19.73;;
48853;SDS011;34673;52.808;17.856;2023-08-20T04:46:37;23.40;;;20.85;;
48853;SDS011;34673;52.808;17.856;2023-08-20T04:49:04;23.52;;;20.83;;
48853;SDS011;34673;52.808;17.856;2023-08-20T04:51:32;25.98;;;21.02;;
48853;SDS011;34673;52.808;17.856;2023-08-20T04:54:00;22.80;;;20.23;;
48853;SDS011;34673;52.808;17.856;2023-08-20T04:56:28;20.67;;;18.48;;
48853;SDS011;34673;52.808;17.856;2023-08-20T04:58:55;21.60;;;19.38;;
48853;SDS011;34673;52.808;17.856;2023-08-20T05:01:43;23.67;;;20.58;;
48853;SDS011;34673;52.808;17.856;2023-08-20T05:04:11;21.95;;;18.25;;
48853;SDS011;34673;52.808;17.856;2023-08-20T05:06:38;26.33;;;21.52;;
48853;SDS011;34673;52.808;17.856;2023-08-20T05:09:06;25.83;;;23.08;;
48853;SDS011;34673;52.808;17.856;2023-08-20T05:11:33;21.52;;;19.23;;
48853;SDS011;34673;52.808;17.856;2023-08-20T05:14:00;22.33;;;19.75;;
48853;SDS011;34673;52.808;17.856;2023-08-20T05:16:29;23.27;;;20.73;;
48853;SDS011;34673;52.808;17.856;2023-08-20T05:18:56;21.85;;;19.55;;
48853;SDS011;34673;52.808;17.856;2023-08-20T05:21:23;22.23;;;19.48;;
48853;SDS011;34673;52.808;17.856;2023-08-20T05:23:52;26.83;;;20.48;;
48853;SDS011;34673;52.808;17.856;2023-08-20T05:26:21;25.17;;;20.00;;
48853;SDS011;34673;52.808;17.856;2023-08-20T05:28:49;23.23;;;20.83;;
48853;SDS011;34673;52.808;17.856;2023-08-20T05:31:16;22.58;;;20.17;;
48853;SDS011;34673;52.808;17.856;2023-08-20T05:33:43;22.48;;;18.63;;
48853;SDS011;34673;52.808;17.856;2023-08-20T05:36:11;26.00;;;21.10;;
48853;SDS011;34673;52.808;17.856;2023-08-20T05:38:39;23.35;;;20.33;;
48853;SDS011;34673;52.808;17.856;2023-08-20T05:41:08;21.03;;;18.83;;
48853;SDS011;34673;52.808;17.856;2023-08-20T05:43:36;20.95;;;18.85;;
48853;SDS011;34673;52.808;17.856;2023-08-20T05:46:04;18.15;;;16.35;;
48853;SDS011;34673;52.808;17.856;2023-08-20T05:48:31;19.13;;;17.02;;
48853;SDS011;34673;52.808;17.856;2023-08-20T05:50:58;19.60;;;17.48;;
48853;SDS011;34673;52.808;17.856;2023-08-20T05:53:26;21.45;;;17.33;;
48853;SDS011;34673;52.808;17.856;2023-08-20T05:55:53;18.58;;;16.65;;
48853;SDS011;34673;52.808;17.856;2023-08-20T05:58:20;19.10;;;17.10;;
48853;SDS011;34673;52.808;17.856;2023-08-20T06:00:47;19.23;;;16.77;;
48853;SDS011;34673;52.808;17.856;2023-08-20T06:03:15;20.38;;;18.17;;
48853;SDS011;34673;52.808;17.856;2023-08-20T06:05:42;19.08;;;16.50;;
48853;SDS011;34673;52.808;17.856;2023-08-20T06:08:09;19.08;;;15.77;;
48853;SDS011;34673;52.808;17.856;2023-08-20T06:10:36;18.90;;;16.85;;
48853;SDS011;34673;52.808;17.856;2023-08-20T06:13:03;17.75;;;15.93;;
48853;SDS011;34673;52.808;17.856;2023-08-20T06:15:31;16.67;;;14.88;;
48853;SDS011;34673;52.808;17.856;2023-08-20T06:17:58;17.75;;;15.80;;
48853;SDS011;34673;52.808;17.856;2023-08-20T06:20:25;17.17;;;14.75;;
48853;SDS011;34673;52.808;17.856;2023-08-20T06:22:53;15.57;;;13.98;;
48853;SDS011;34673;52.808;17.856;2023-08-20T06:25:20;15.75;;;14.10;;
48853;SDS011;34673;52.808;17.856;2023-08-20T06:27:47;15.13;;;13.63;;
48853;SDS011;34673;52.808;17.856;2023-08-20T06:30:14;14.85;;;12.55;;
48853;SDS011;34673;52.808;17.856;2023-08-20T06:32:42;14.13;;;12.40;;
48853;SDS011;34673;52.808;17.856;2023-08-20T06:35:11;19.02;;;12.00;;
48853;SDS011;34673;52.808;17.856;2023-08-20T06:37:38;12.52;;;11.32;;
48853;SDS011;34673;52.808;17.856;2023-08-20T06:40:07;15.05;;;12.02;;
48853;SDS011;34673;52.808;17.856;2023-08-20T06:42:35;12.73;;;11.52;;
48853;SDS011;34673;52.808;17.856;2023-08-20T06:45:06;12.60;;;11.30;;
48853;SDS011;34673;52.808;17.856;2023-08-20T06:47:34;12.57;;;11.27;;
48853;SDS011;34673;52.808;17.856;2023-08-20T06:50:03;14.68;;;10.20;;
48853;SDS011;34673;52.808;17.856;2023-08-20T06:52:31;13.07;;;9.98;;
48853;SDS011;34673;52.808;17.856;2023-08-20T06:54:58;11.65;;;10.40;;
48853;SDS011;34673;52.808;17.856;2023-08-20T06:57:25;11.38;;;9.55;;
48853;SDS011;34673;52.808;17.856;2023-08-20T06:59:52;11.35;;;9.23;;
48853;SDS011;34673;52.808;17.856;2023-08-20T07:02:20;12.35;;;8.82;;
48853;SDS011;34673;52.808;17.856;2023-08-20T07:04:47;11.70;;;8.90;;
48853;SDS011;34673;52.808;17.856;2023-08-20T07:07:14;12.38;;;9.38;;
48853;SDS011;34673;52.808;17.856;2023-08-20T07:09:42;11.30;;;9.38;;
48853;SDS011;34673;52.808;17.856;2023-08-20T07:12:10;9.43;;;8.43;;
48853;SDS011;34673;52.808;17.856;2023-08-20T07:14:37;12.05;;;8.70;;
48853;SDS011;34673;52.808;17.856;2023-08-20T07:17:04;9.90;;;8.50;;
48853;SDS011;34673;52.808;17.856;2023-08-20T07:19:32;10.45;;;8.20;;
48853;SDS011;34673;52.808;17.856;2023-08-20T07:21:59;9.23;;;8.23;;
48853;SDS011;34673;52.808;17.856;2023-08-20T07:24:26;10.10;;;7.97;;
48853;SDS011;34673;52.808;17.856;2023-08-20T07:26:56;9.00;;;8.10;;
48853;SDS011;34673;52.808;17.856;2023-08-20T07:29:27;9.40;;;8.40;;
48853;SDS011;34673;52.808;17.856;2023-08-20T07:31:58;9.80;;;8.32;;
48853;SDS011;34673;52.808;17.856;2023-08-20T07:34:30;10.63;;;8.65;;
48853;SDS011;34673;52.808;17.856;2023-08-20T07:37:01;9.82;;;8.82;;
48853;SDS011;34673;52.808;17.856;2023-08-20T07:39:29;10.00;;;9.00;;
48853;SDS011;34673;52.808;17.856;2023-08-20T07:41:56;10.30;;;8.48;;
48853;SDS011;34673;52.808;17.856;2023-08-20T07:44:24;11.85;;;9.00;;
48853;SDS011;34673;52.808;17.856;2023-08-20T07:46:51;11.25;;;9.43;;
48853;SDS011;34673;52.808;17.856;2023-08-20T07:49:18;11.52;;;8.63;;
48853;SDS011;34673;52.808;17.856;2023-08-20T07:51:45;9.32;;;8.30;;
48853;SDS011;34673;52.808;17.856;2023-08-20T07:54:13;10.25;;;9.10;;
48853;SDS011;34673;52.808;17.856;2023-08-20T07:56:40;12.00;;;8.85;;
48853;SDS011;34673;52.808;17.856;2023-08-20T07:59:07;9.63;;;8.63;;
48853;SDS011;34673;52.808;17.856;2023-08-20T08:01:34;9.80;;;8.18;;
48853;SDS011;34673;52.808;17.856;2023-08-20T08:04:02;10.27;;;7.47;;
48853;SDS011;34673;52.808;17.856;2023-08-20T08:06:29;11.18;;;7.95;;
48853;SDS011;34673;52.808;17.856;2023-08-20T08:08:56;8.77;;;7.88;;
48853;SDS011;34673;52.808;17.856;2023-08-20T08:11:24;10.88;;;8.30;;
48853;SDS011;34673;52.808;17.856;2023-08-20T08:13:51;10.80;;;7.68;;
48853;SDS011;34673;52.808;17.856;2023-08-20T08:16:18;8.25;;;7.45;;
48853;SDS011;34673;52.808;17.856;2023-08-20T08:18:45;10.30;;;8.45;;
48853;SDS011;34673;52.808;17.856;2023-08-20T08:21:12;11.05;;;8.05;;
48853;SDS011;34673;52.808;17.856;2023-08-20T08:23:40;8.85;;;7.68;;
48853;SDS011;34673;52.808;17.856;2023-08-20T08:26:07;9.23;;;8.27;;
48853;SDS011;34673;52.808;17.856;2023-08-20T08:28:34;10.20;;;8.00;;
48853;SDS011;34673;52.808;17.856;2023-08-20T08:31:01;9.25;;;8.32;;
48853;SDS011;34673;52.808;17.856;2023-08-20T08:33:32;9.60;;;7.85;;
48853;SDS011;34673;52.808;17.856;2023-08-20T08:35:59;10.32;;;7.88;;
48853;SDS011;34673;52.808;17.856;2023-08-20T08:38:26;8.52;;;7.63;;
48853;SDS011;34673;52.808;17.856;2023-08-20T08:40:53;9.82;;;8.52;;
48853;SDS011;34673;52.808;17.856;2023-08-20T08:43:22;8.75;;;7.85;;
48853;SDS011;34673;52.808;17.856;2023-08-20T08:45:49;10.38;;;8.05;;
48853;SDS011;34673;52.808;17.856;2023-08-20T08:48:17;10.63;;;7.90;;
48853;SDS011;34673;52.808;17.856;2023-08-20T08:50:46;10.40;;;7.65;;
48853;SDS011;34673;52.808;17.856;2023-08-20T08:53:13;8.73;;;7.65;;
48853;SDS011;34673;52.808;17.856;2023-08-20T08:55:41;8.40;;;7.50;;
48853;SDS011;34673;52.808;17.856;2023-08-20T08:58:09;10.77;;;8.02;;
48853;SDS011;34673;52.808;17.856;2023-08-20T09:00:36;9.45;;;7.72;;
48853;SDS011;34673;52.808;17.856;2023-08-20T09:03:04;10.98;;;8.10;;
48853;SDS011;34673;52.808;17.856;2023-08-20T09:05:31;7.88;;;7.03;;
48853;SDS011;34673;52.808;17.856;2023-08-20T09:07:59;8.85;;;7.80;;
48853;SDS011;34673;52.808;17.856;2023-08-20T09:10:26;8.38;;;7.22;;
48853;SDS011;34673;52.808;17.856;2023-08-20T09:12:54;8.75;;;7.38;;
48853;SDS011;34673;52.808;17.856;2023-08-20T09:15:29;7.93;;;7.15;;
48853;SDS011;34673;52.808;17.856;2023-08-20T09:18:00;8.18;;;7.30;;
48853;SDS011;34673;52.808;17.856;2023-08-20T09:20:36;8.45;;;7.65;;
48853;SDS011;34673;52.808;17.856;2023-08-20T09:23:04;11.32;;;7.97;;
48853;SDS011;34673;52.808;17.856;2023-08-20T09:25:37;11.02;;;7.82;;
48853;SDS011;34673;52.808;17.856;2023-08-20T09:28:04;9.02;;;8.02;;
48853;SDS011;34673;52.808;17.856;2023-08-20T09:30:32;9.45;;;7.82;;
48853;SDS011;34673;52.808;17.856;2023-08-20T09:33:03;9.13;;;7.35;;
48853;SDS011;34673;52.808;17.856;2023-08-20T09:35:49;8.85;;;7.75;;
48853;SDS011;34673;52.808;17.856;2023-08-20T09:38:18;9.25;;;7.45;;
48853;SDS011;34673;52.808;17.856;2023-08-20T09:40:53;8.50;;;7.70;;
48853;SDS011;34673;52.808;17.856;2023-08-20T09:43:26;8.93;;;7.85;;
48853;SDS011;34673;52.808;17.856;2023-08-20T09:45:57;8.43;;;7.10;;
48853;SDS011;34673;52.808;17.856;2023-08-20T09:48:27;8.60;;;7.10;;
48853;SDS011;34673;52.808;17.856;2023-08-20T09:51:04;9.65;;;8.00;;
48853;SDS011;34673;52.808;17.856;2023-08-20T09:53:48;8.25;;;7.45;;
48853;SDS011;34673;52.808;17.856;2023-08-20T09:56:29;18.05;;;8.95;;
48853;SDS011;34673;52.808;17.856;2023-08-20T09:58:57;8.85;;;7.80;;
48853;SDS011;34673;52.808;17.856;2023-08-20T10:01:26;11.95;;;8.23;;
48853;SDS011;34673;52.808;17.856;2023-08-20T10:03:54;9.07;;;7.88;;
48853;SDS011;34673;52.808;17.856;2023-08-20T10:06:22;10.48;;;8.07;;
48853;SDS011;34673;52.808;17.856;2023-08-20T10:08:50;8.75;;;7.88;;
48853;SDS011;34673;52.808;17.856;2023-08-20T10:11:18;9.27;;;7.85;;
48853;SDS011;34673;52.808;17.856;2023-08-20T10:13:45;9.60;;;8.07;;
48853;SDS011;34673;52.808;17.856;2023-08-20T10:16:12;9.50;;;8.05;;
48853;SDS011;34673;52.808;17.856;2023-08-20T10:18:40;8.45;;;7.65;;
48853;SDS011;34673;52.808;17.856;2023-08-20T10:21:08;8.30;;;7.50;;
48853;SDS011;34673;52.808;17.856;2023-08-20T10:23:37;9.27;;;7.70;;
48853;SDS011;34673;52.808;17.856;2023-08-20T10:26:09;8.55;;;7.65;;
48853;SDS011;34673;52.808;17.856;2023-08-20T10:28:37;8.13;;;7.28;;
48853;SDS011;34673;52.808;17.856;2023-08-20T10:33:47;9.65;;;7.70;;
48853;SDS011;34673;52.808;17.856;2023-08-20T10:36:20;9.85;;;7.60;;
48853;SDS011;34673;52.808;17.856;2023-08-20T10:38:57;8.38;;;7.00;;
48853;SDS011;34673;52.808;17.856;2023-08-20T10:41:31;13.77;;;7.50;;
48853;SDS011;34673;52.808;17.856;2023-08-20T10:44:01;7.93;;;7.00;;
48853;SDS011;34673;52.808;17.856;2023-08-20T10:46:28;9.18;;;6.60;;
48853;SDS011;34673;52.808;17.856;2023-08-20T10:49:02;7.80;;;7.00;;
48853;SDS011;34673;52.808;17.856;2023-08-20T10:51:36;7.90;;;7.10;;
48853;SDS011;34673;52.808;17.856;2023-08-20T10:54:08;8.20;;;7.40;;
48853;SDS011;34673;52.808;17.856;2023-08-20T10:59:18;9.18;;;7.35;;
48853;SDS011;34673;52.808;17.856;2023-08-20T11:01:49;7.80;;;7.00;;
48853;SDS011;34673;52.808;17.856;2023-08-20T11:04:19;8.25;;;7.35;;
48853;SDS011;34673;52.808;17.856;2023-08-20T11:06:54;9.02;;;6.68;;
48853;SDS011;34673;52.808;17.856;2023-08-20T11:09:26;7.97;;;6.82;;
48853;SDS011;34673;52.808;17.856;2023-08-20T11:11:55;8.52;;;7.00;;
48853;SDS011;34673;52.808;17.856;2023-08-20T11:14:24;11.70;;;6.57;;
48853;SDS011;34673;52.808;17.856;2023-08-20T11:16:51;7.20;;;6.43;;
48853;SDS011;34673;52.808;17.856;2023-08-20T11:19:20;8.48;;;6.28;;
48853;SDS011;34673;52.808;17.856;2023-08-20T11:21:48;7.28;;;6.57;;
48853;SDS011;34673;52.808;17.856;2023-08-20T11:24:16;8.75;;;6.90;;
48853;SDS011;34673;52.808;17.856;2023-08-20T11:26:47;8.45;;;6.43;;
48853;SDS011;34673;52.808;17.856;2023-08-20T11:29:15;7.80;;;6.60;;
48853;SDS011;34673;52.808;17.856;2023-08-20T11:31:48;8.93;;;6.43;;
48853;SDS011;34673;52.808;17.856;2023-08-20T11:34:17;10.52;;;7.22;;
48853;SDS011;34673;52.808;17.856;2023-08-20T11:36:46;9.05;;;7.25;;
48853;SDS011;34673;52.808;17.856;2023-08-20T11:39:13;8.32;;;6.65;;
48853;SDS011;34673;52.808;17.856;2023-08-20T11:41:41;9.73;;;7.00;;
48853;SDS011;34673;52.808;17.856;2023-08-20T11:44:09;8.68;;;6.25;;
48853;SDS011;34673;52.808;17.856;2023-08-20T11:46:43;7.45;;;6.70;;
48853;SDS011;34673;52.808;17.856;2023-08-20T11:49:11;7.28;;;6.30;;
48853;SDS011;34673;52.808;17.856;2023-08-20T11:51:49;7.38;;;6.65;;
48853;SDS011;34673;52.808;17.856;2023-08-20T11:54:17;8.68;;;6.55;;
48853;SDS011;34673;52.808;17.856;2023-08-20T11:56:46;9.63;;;6.88;;
48853;SDS011;34673;52.808;17.856;2023-08-20T12:01:43;7.13;;;6.07;;
48853;SDS011;34673;52.808;17.856;2023-08-20T12:04:16;6.85;;;6.20;;
48853;SDS011;34673;52.808;17.856;2023-08-20T12:06:43;7.03;;;6.30;;
48853;SDS011;34673;52.808;17.856;2023-08-20T12:11:54;8.85;;;6.28;;
48853;SDS011;34673;52.808;17.856;2023-08-20T12:14:24;8.07;;;6.35;;
48853;SDS011;34673;52.808;17.856;2023-08-20T12:16:53;7.97;;;6.13;;
48853;SDS011;34673;52.808;17.856;2023-08-20T12:19:21;9.82;;;6.13;;
48853;SDS011;34673;52.808;17.856;2023-08-20T12:21:48;7.13;;;6.00;;
48853;SDS011;34673;52.808;17.856;2023-08-20T12:24:16;7.40;;;6.30;;
48853;SDS011;34673;52.808;17.856;2023-08-20T12:26:46;8.85;;;6.32;;
48853;SDS011;34673;52.808;17.856;2023-08-20T12:29:13;9.23;;;6.63;;
48853;SDS011;34673;52.808;17.856;2023-08-20T12:31:41;8.10;;;6.85;;
48853;SDS011;34673;52.808;17.856;2023-08-20T12:34:09;7.13;;;6.38;;
48853;SDS011;34673;52.808;17.856;2023-08-20T12:36:36;9.57;;;6.57;;
48853;SDS011;34673;52.808;17.856;2023-08-20T12:39:03;7.15;;;6.00;;
48853;SDS011;34673;52.808;17.856;2023-08-20T12:41:31;8.73;;;6.40;;
48853;SDS011;34673;52.808;17.856;2023-08-20T12:43:59;6.55;;;5.88;;
48853;SDS011;34673;52.808;17.856;2023-08-20T12:46:26;6.45;;;5.85;;
48853;SDS011;34673;52.808;17.856;2023-08-20T12:48:54;8.48;;;6.13;;
48853;SDS011;34673;52.808;17.856;2023-08-20T12:51:21;8.15;;;6.20;;
48853;SDS011;34673;52.808;17.856;2023-08-20T12:53:49;7.70;;;5.93;;
48853;SDS011;34673;52.808;17.856;2023-08-20T12:56:16;7.57;;;6.50;;
48853;SDS011;34673;52.808;17.856;2023-08-20T12:58:44;8.07;;;5.72;;
48853;SDS011;34673;52.808;17.856;2023-08-20T13:01:11;7.78;;;6.25;;
48853;SDS011;34673;52.808;17.856;2023-08-20T13:03:39;8.70;;;6.25;;
48853;SDS011;34673;52.808;17.856;2023-08-20T13:06:08;6.75;;;6.03;;
48853;SDS011;34673;52.808;17.856;2023-08-20T13:08:36;10.55;;;6.03;;
48853;SDS011;34673;52.808;17.856;2023-08-20T13:11:04;7.30;;;6.00;;
48853;SDS011;34673;52.808;17.856;2023-08-20T13:13:34;9.27;;;6.18;;
48853;SDS011;34673;52.808;17.856;2023-08-20T13:16:02;9.85;;;6.80;;
48853;SDS011;34673;52.808;17.856;2023-08-20T13:18:30;10.13;;;7.10;;
48853;SDS011;34673;52.808;17.856;2023-08-20T13:20:57;7.20;;;6.50;;
48853;SDS011;34673;52.808;17.856;2023-08-20T13:23:25;7.18;;;6.43;;
48853;SDS011;34673;52.808;17.856;2023-08-20T13:25:52;6.75;;;5.57;;
48853;SDS011;34673;52.808;17.856;2023-08-20T13:28:19;6.80;;;6.10;;
48853;SDS011;34673;52.808;17.856;2023-08-20T13:30:47;7.97;;;5.75;;
48853;SDS011;34673;52.808;17.856;2023-08-20T13:33:14;10.13;;;6.00;;
48853;SDS011;34673;52.808;17.856;2023-08-20T13:35:42;9.82;;;6.50;;
48853;SDS011;34673;52.808;17.856;2023-08-20T13:38:09;7.80;;;5.53;;
48853;SDS011;34673;52.808;17.856;2023-08-20T13:40:37;7.07;;;5.20;;
48853;SDS011;34673;52.808;17.856;2023-08-20T13:43:04;8.40;;;6.13;;
48853;SDS011;34673;52.808;17.856;2023-08-20T13:45:31;8.77;;;5.40;;
48853;SDS011;34673;52.808;17.856;2023-08-20T13:47:59;10.30;;;5.78;;
48853;SDS011;34673;52.808;17.856;2023-08-20T13:50:27;8.60;;;5.65;;
48853;SDS011;34673;52.808;17.856;2023-08-20T13:52:54;8.32;;;5.80;;
48853;SDS011;34673;52.808;17.856;2023-08-20T13:55:24;7.78;;;6.00;;
48853;SDS011;34673;52.808;17.856;2023-08-20T13:57:52;7.05;;;5.68;;
48853;SDS011;34673;52.808;17.856;2023-08-20T14:00:20;8.25;;;5.20;;
48853;SDS011;34673;52.808;17.856;2023-08-20T14:02:47;9.38;;;5.70;;
48853;SDS011;34673;52.808;17.856;2023-08-20T14:05:15;9.90;;;5.93;;
48853;SDS011;34673;52.808;17.856;2023-08-20T14:07:42;7.70;;;5.82;;
48853;SDS011;34673;52.808;17.856;2023-08-20T14:10:10;6.43;;;5.55;;
48853;SDS011;34673;52.808;17.856;2023-08-20T14:12:37;7.38;;;5.65;;
48853;SDS011;34673;52.808;17.856;2023-08-20T14:15:07;9.85;;;6.35;;
48853;SDS011;34673;52.808;17.856;2023-08-20T14:17:35;6.97;;;5.22;;
48853;SDS011;34673;52.808;17.856;2023-08-20T14:20:03;6.88;;;6.05;;
48853;SDS011;34673;52.808;17.856;2023-08-20T14:22:32;8.20;;;5.78;;
48853;SDS011;34673;52.808;17.856;2023-08-20T14:24:59;7.28;;;5.60;;
48853;SDS011;34673;52.808;17.856;2023-08-20T14:27:26;6.65;;;5.45;;
48853;SDS011;34673;52.808;17.856;2023-08-20T14:29:53;5.88;;;5.30;;
48853;SDS011;34673;52.808;17.856;2023-08-20T14:32:21;7.68;;;5.72;;
48853;SDS011;34673;52.808;17.856;2023-08-20T14:34:48;7.45;;;6.03;;
48853;SDS011;34673;52.808;17.856;2023-08-20T14:37:15;8.55;;;5.47;;
48853;SDS011;34673;52.808;17.856;2023-08-20T14:39:43;6.22;;;5.63;;
48853;SDS011;34673;52.808;17.856;2023-08-20T14:42:10;10.68;;;5.35;;
48853;SDS011;34673;52.808;17.856;2023-08-20T14:44:37;8.50;;;5.53;;
48853;SDS011;34673;52.808;17.856;2023-08-20T14:47:05;7.38;;;5.65;;
48853;SDS011;34673;52.808;17.856;2023-08-20T14:49:32;7.55;;;6.10;;
48853;SDS011;34673;52.808;17.856;2023-08-20T14:52:00;6.70;;;5.93;;
48853;SDS011;34673;52.808;17.856;2023-08-20T14:54:30;7.40;;;5.80;;